Time;durP1;ratioP1;P1;durP2;ratioP2;P2;SDS_P1;SDS_P2;PMS_P1;PMS_P2;Temp;Humidity;BMP_temperature;BMP_pressure;BME280_temperature;BME280_humidity;BME280_pressure;Samples;Min_cycle;Max_cycle;Signal;HPM_P1;HPM_P2
2022/11/08 00:03:43;;;;;;;2.63;1.80;;;22.50;58.50;;;;;;5047059;28;20441;-62
2022/11/08 00:14:21;;;;;;;2.60;1.60;;;22.50;58.50;;;;;;5057599;28;20507;-62
2022/11/08 00:16:47;;;;;;;3.55;1.77;;;22.50;58.50;;;;;;5061115;28;20025;-65
2022/11/08 00:19:12;;;;;;;3.65;2.10;;;22.40;58.50;;;;;;5057051;28;20024;-63
2022/11/08 00:21:38;;;;;;;2.97;1.77;;;22.40;58.40;;;;;;5053423;28;20107;-64
2022/11/08 00:24:04;;;;;;;4.40;2.00;;;22.40;58.40;;;;;;5059770;28;20195;-63
2022/11/08 00:26:29;;;;;;;3.25;1.83;;;22.40;58.50;;;;;;5063297;28;20463;-63
2022/11/08 00:28:55;;;;;;;2.72;1.70;;;22.40;58.50;;;;;;5056538;28;20486;-62
2022/11/08 00:31:20;;;;;;;3.28;1.88;;;22.40;58.50;;;;;;5053139;28;20037;-64
2022/11/08 00:33:46;;;;;;;2.80;1.83;;;22.40;58.50;;;;;;5055441;28;20122;-64
2022/11/08 00:36:11;;;;;;;4.45;1.83;;;22.40;58.50;;;;;;5060500;28;20108;-64
2022/11/08 00:38:41;;;;;;;2.70;1.73;;;22.30;58.50;;;;;;5056628;28;20423;-63
2022/11/08 00:41:07;;;;;;;2.42;1.50;;;22.30;58.50;;;;;;5052044;28;20463;-62
2022/11/08 00:43:32;;;;;;;3.08;1.83;;;22.30;59.00;;;;;;5045716;28;20025;-64
2022/11/08 00:45:58;;;;;;;3.22;1.77;;;22.30;58.50;;;;;;5041956;28;20028;-63
2022/11/08 00:48:24;;;;;;;2.95;1.88;;;22.30;58.50;;;;;;5049613;28;20132;-64
2022/11/08 00:50:49;;;;;;;3.45;2.10;;;22.30;58.50;;;;;;5052237;28;20368;-63
2022/11/08 00:53:15;;;;;;;2.95;1.80;;;22.30;58.50;;;;;;5054074;28;20025;-64
2022/11/08 00:55:41;;;;;;;3.20;1.73;;;22.30;58.50;;;;;;5050432;28;20021;-62
2022/11/08 00:58:06;;;;;;;3.45;1.90;;;22.20;58.50;;;;;;5056015;28;20373;-63
2022/11/08 01:00:32;;;;;;;2.50;1.50;;;22.20;58.50;;;;;;5053939;28;20029;-62
2022/11/08 01:05:42;;;;;;;2.88;1.75;;;22.20;58.50;;;;;;5060131;28;20116;-63
2022/11/08 01:08:09;;;;;;;2.85;1.80;;;22.20;58.50;;;;;;5054768;28;20100;-64
2022/11/08 01:10:35;;;;;;;3.17;1.98;;;22.20;58.50;;;;;;5052600;28;20039;-62
2022/11/08 01:13:00;;;;;;;2.97;1.70;;;22.20;58.60;;;;;;5057451;28;20033;-62
2022/11/08 01:15:26;;;;;;;2.80;1.83;;;22.20;58.50;;;;;;5055810;28;20549;-62
2022/11/08 01:17:52;;;;;;;2.50;1.50;;;22.20;58.50;;;;;;5050908;28;20061;-62
2022/11/08 01:20:17;;;;;;;2.67;1.75;;;22.10;59.00;;;;;;5046993;28;20075;-64
2022/11/08 01:22:43;;;;;;;3.03;1.70;;;22.20;58.50;;;;;;5043940;28;20032;-62
2022/11/08 01:25:08;;;;;;;3.28;1.98;;;22.10;58.50;;;;;;5050440;28;20121;-62
2022/11/08 01:27:34;;;;;;;3.00;1.58;;;22.10;58.50;;;;;;5058135;28;20050;-63
2022/11/08 01:30:01;;;;;;;3.40;1.90;;;22.10;58.50;;;;;;5055776;28;20056;-63
2022/11/08 01:32:26;;;;;;;3.08;1.80;;;22.10;58.50;;;;;;5053295;28;20403;-63
2022/11/08 01:34:52;;;;;;;3.22;1.63;;;22.10;58.50;;;;;;5053812;28;20044;-63
2022/11/08 01:37:17;;;;;;;2.80;1.73;;;22.10;58.50;;;;;;5050336;28;20102;-64
2022/11/08 01:39:43;;;;;;;2.72;1.73;;;22.10;58.50;;;;;;5058466;28;20027;-63
2022/11/08 01:42:09;;;;;;;4.20;1.70;;;22.00;58.50;;;;;;5054949;28;20024;-62
2022/11/08 01:45:14;;;;;;;2.40;1.50;;;22.10;58.50;;;;;;5055853;28;20379;-61
2022/11/08 01:47:40;;;;;;;2.80;1.63;;;22.00;58.50;;;;;;5058051;28;20036;-64
2022/11/08 01:50:06;;;;;;;2.50;1.58;;;22.00;58.50;;;;;;5056404;28;20093;-63
2022/11/08 01:52:41;;;;;;;2.90;1.60;;;22.00;58.50;;;;;;5055199;28;20052;-63
2022/11/08 01:55:15;;;;;;;3.15;1.73;;;22.00;58.50;;;;;;5049488;28;20018;-63
2022/11/08 01:57:50;;;;;;;2.63;1.52;;;22.00;58.50;;;;;;5049931;28;20104;-62
2022/11/08 02:00:17;;;;;;;2.78;1.60;;;22.00;58.50;;;;;;5053089;28;20033;-63
2022/11/08 02:02:44;;;;;;;2.35;1.60;;;22.00;58.50;;;;;;5055997;28;20029;-62
2022/11/08 02:05:25;;;;;;;2.47;1.50;;;22.00;58.50;;;;;;5050964;28;20033;-63
2022/11/08 02:08:24;;;;;;;3.10;2.00;;;22.00;58.50;;;;;;5056844;28;20384;-63
2022/11/08 02:10:51;;;;;;;2.70;1.65;;;22.00;58.50;;;;;;5044111;28;20045;-63
2022/11/08 02:13:23;;;;;;;2.30;1.50;;;22.00;59.10;;;;;;5051486;28;20472;-63
2022/11/08 02:15:49;;;;;;;2.30;1.50;;;21.90;58.50;;;;;;5054302;28;20456;-65
2022/11/08 02:18:16;;;;;;;2.55;1.40;;;21.90;58.50;;;;;;5056748;28;20020;-63
2022/11/08 02:20:55;;;;;;;2.40;1.63;;;21.90;58.50;;;;;;5057918;28;20020;-63
2022/11/08 02:23:26;;;;;;;2.45;1.50;;;21.90;58.50;;;;;;5050441;28;20028;-62
2022/11/08 02:25:52;;;;;;;2.63;1.58;;;21.90;58.50;;;;;;5047749;28;20124;-62
2022/11/08 02:28:18;;;;;;;2.42;1.50;;;21.90;58.50;;;;;;5050477;28;20082;-62
2022/11/08 02:30:43;;;;;;;2.90;1.70;;;21.90;58.50;;;;;;5047767;28;20033;-63
2022/11/08 02:33:18;;;;;;;2.20;1.40;;;21.90;58.50;;;;;;5049599;28;20067;-62
2022/11/08 02:35:53;;;;;;;2.90;1.70;;;21.90;58.50;;;;;;5057661;28;20025;-63
2022/11/08 02:38:19;;;;;;;2.40;1.40;;;21.90;58.50;;;;;;5061764;28;20035;-64
2022/11/08 02:40:49;;;;;;;2.40;1.40;;;21.90;58.60;;;;;;5049371;28;20017;-62
2022/11/08 02:43:15;;;;;;;2.75;1.50;;;21.90;58.50;;;;;;5048302;28;20021;-64
2022/11/08 02:45:40;;;;;;;2.55;1.60;;;21.80;58.50;;;;;;5060600;28;20547;-64
2022/11/08 02:48:06;;;;;;;2.15;1.40;;;21.90;58.50;;;;;;5056211;28;20100;-63
2022/11/08 02:50:32;;;;;;;2.95;1.40;;;21.80;58.50;;;;;;5057042;28;20027;-62
2022/11/08 02:52:57;;;;;;;2.50;1.42;;;21.80;58.50;;;;;;5050020;28;20029;-62
2022/11/08 02:55:23;;;;;;;2.78;1.40;;;21.80;58.50;;;;;;5059111;28;20028;-62
2022/11/08 02:57:48;;;;;;;2.28;1.50;;;21.80;58.50;;;;;;5053523;28;20389;-65
2022/11/08 03:00:14;;;;;;;2.28;1.38;;;21.80;58.50;;;;;;5052131;28;20032;-62
2022/11/08 03:02:40;;;;;;;2.30;1.30;;;21.80;58.50;;;;;;5049602;28;20064;-63
2022/11/08 03:05:06;;;;;;;1.90;1.30;;;21.80;58.50;;;;;;5046000;28;20453;-63
2022/11/08 03:07:32;;;;;;;2.25;1.40;;;21.80;58.50;;;;;;5046615;28;20018;-62
2022/11/08 03:09:57;;;;;;;2.17;1.30;;;21.80;58.50;;;;;;5050323;28;20496;-62
2022/11/08 03:12:23;;;;;;;2.70;1.30;;;21.70;58.50;;;;;;5051552;28;20036;-62
2022/11/08 03:14:48;;;;;;;2.40;1.75;;;21.70;58.50;;;;;;5051297;28;20510;-64
2022/11/08 03:17:14;;;;;;;2.05;1.33;;;21.80;58.60;;;;;;5049882;28;20097;-63
2022/11/08 03:19:40;;;;;;;2.58;1.50;;;21.70;58.50;;;;;;5049015;28;20043;-63
2022/11/08 03:22:05;;;;;;;2.30;1.48;;;21.70;58.50;;;;;;5052680;28;20083;-63
2022/11/08 03:24:32;;;;;;;2.88;1.50;;;21.70;58.60;;;;;;5063356;28;20035;-63
2022/11/08 03:26:58;;;;;;;2.20;1.38;;;21.70;58.50;;;;;;5060741;28;20484;-63
2022/11/08 03:29:24;;;;;;;2.70;1.52;;;21.70;58.50;;;;;;5059337;28;20035;-63
2022/11/08 03:31:49;;;;;;;1.95;1.17;;;21.70;58.60;;;;;;5059957;28;20567;-63
2022/11/08 03:34:15;;;;;;;2.45;1.58;;;21.70;58.60;;;;;;5052565;28;20174;-64
2022/11/08 03:36:41;;;;;;;2.05;1.38;;;21.70;58.50;;;;;;5057551;28;20025;-63
2022/11/08 03:39:07;;;;;;;2.25;1.40;;;21.70;58.60;;;;;;5055220;28;20033;-62
2022/11/08 03:41:33;;;;;;;2.35;1.40;;;21.70;58.60;;;;;;5057048;28;20032;-63
2022/11/08 03:43:58;;;;;;;1.85;1.30;;;21.70;58.60;;;;;;5050468;28;20018;-64
2022/11/08 03:46:24;;;;;;;2.13;1.30;;;21.60;58.50;;;;;;5055077;28;20466;-63
2022/11/08 03:48:49;;;;;;;1.88;1.30;;;21.70;58.60;;;;;;5058146;28;20369;-63
2022/11/08 03:51:15;;;;;;;2.40;1.40;;;21.60;58.50;;;;;;5057142;28;20044;-63
2022/11/08 03:53:40;;;;;;;2.08;1.30;;;21.70;58.60;;;;;;5056108;28;20473;-62
2022/11/08 03:56:06;;;;;;;2.20;1.30;;;21.70;58.60;;;;;;5050697;28;20029;-62
2022/11/08 03:58:32;;;;;;;2.10;1.30;;;21.60;58.60;;;;;;5052203;28;20064;-62
2022/11/08 04:01:03;;;;;;;2.28;1.35;;;21.60;58.60;;;;;;5055001;28;20362;-62
2022/11/08 04:03:28;;;;;;;2.20;1.45;;;21.60;58.60;;;;;;5060371;28;20357;-64
2022/11/08 04:05:55;;;;;;;2.17;1.30;;;21.60;58.60;;;;;;5060640;28;20033;-62
2022/11/08 04:08:20;;;;;;;2.03;1.20;;;21.60;58.70;;;;;;5059838;28;20383;-64
2022/11/08 04:10:46;;;;;;;2.30;1.50;;;21.60;58.70;;;;;;5049372;28;20024;-65
2022/11/08 04:15:56;;;;;;;1.92;1.25;;;21.50;58.60;;;;;;5061930;28;20027;-62
2022/11/08 04:21:23;;;;;;;2.08;1.40;;;21.50;58.60;;;;;;5058198;28;20412;-62
2022/11/08 04:23:50;;;;;;;2.10;1.30;;;21.50;58.60;;;;;;5058663;28;20035;-62
2022/11/08 04:26:17;;;;;;;2.08;1.40;;;21.50;58.70;;;;;;5048720;28;20098;-63
2022/11/08 04:28:43;;;;;;;2.00;1.30;;;21.50;58.60;;;;;;5059312;28;20054;-62
2022/11/08 04:31:18;;;;;;;1.58;1.08;;;21.50;58.70;;;;;;5053892;28;20052;-62
2022/11/08 04:33:44;;;;;;;1.80;1.20;;;21.50;58.70;;;;;;5052670;28;20045;-63
2022/11/08 04:36:15;;;;;;;1.77;1.23;;;21.50;58.70;;;;;;5056567;28;20472;-62
2022/11/08 04:38:41;;;;;;;2.08;1.30;;;21.50;58.70;;;;;;5056527;28;20033;-63
2022/11/08 04:41:09;;;;;;;1.90;1.30;;;21.50;58.70;;;;;;5058967;28;20442;-61
2022/11/08 04:43:35;;;;;;;2.00;1.20;;;21.50;58.70;;;;;;5061732;28;20032;-63
2022/11/08 04:46:16;;;;;;;1.80;1.20;;;21.50;58.70;;;;;;5019819;28;20021;-64
2022/11/08 04:48:42;;;;;;;2.10;1.30;;;21.50;58.70;;;;;;5052373;28;20478;-61
2022/11/08 04:51:16;;;;;;;1.67;1.15;;;21.50;58.70;;;;;;5064619;28;20051;-62
2022/11/08 04:53:41;;;;;;;1.70;1.20;;;21.40;58.70;;;;;;5059635;28;20021;-62
2022/11/08 04:56:10;;;;;;;1.67;1.20;;;21.40;58.70;;;;;;5054969;28;20021;-61
2022/11/08 04:58:40;;;;;;;2.15;1.45;;;21.40;58.70;;;;;;5052967;28;20377;-64
2022/11/08 05:01:07;;;;;;;2.00;1.30;;;21.40;58.70;;;;;;5047532;28;20464;-63
2022/11/08 05:03:33;;;;;;;1.70;1.08;;;21.50;58.80;;;;;;5049863;28;20047;-63
2022/11/08 05:06:04;;;;;;;2.25;1.30;;;21.40;58.70;;;;;;5054605;28;20096;-61
2022/11/08 05:08:30;;;;;;;1.90;1.20;;;21.40;58.70;;;;;;5058314;28;20025;-61
2022/11/08 05:11:07;;;;;;;2.03;1.20;;;21.40;58.70;;;;;;5061637;28;20109;-61
2022/11/08 05:13:34;;;;;;;1.70;1.10;;;21.50;58.80;;;;;;5053749;28;20031;-62
2022/11/08 05:16:03;;;;;;;2.30;1.30;;;21.40;58.70;;;;;;5056546;28;20468;-62
2022/11/08 05:18:30;;;;;;;1.90;1.20;;;21.40;58.80;;;;;;5057270;28;20017;-62
2022/11/08 05:23:42;;;;;;;2.13;1.23;;;21.40;59.30;;;;;;5049359;28;20036;-62
2022/11/08 05:26:08;;;;;;;1.90;1.20;;;21.40;58.80;;;;;;5050023;28;20551;-62
2022/11/08 05:28:34;;;;;;;2.03;1.20;;;21.40;58.80;;;;;;5045189;28;20089;-62
2022/11/08 05:31:00;;;;;;;1.95;1.15;;;21.40;58.80;;;;;;5056319;28;20045;-62
2022/11/08 05:33:26;;;;;;;2.35;1.08;;;21.40;58.80;;;;;;5059627;28;20024;-61
2022/11/08 05:35:51;;;;;;;1.80;1.20;;;21.40;58.90;;;;;;5055067;28;20030;-62
2022/11/08 05:38:18;;;;;;;1.60;1.10;;;21.40;58.90;;;;;;5047147;28;20060;-64
2022/11/08 05:40:44;;;;;;;1.70;1.20;;;21.40;58.80;;;;;;5048424;28;20025;-62
2022/11/08 05:43:09;;;;;;;1.83;1.10;;;21.40;58.90;;;;;;5049653;28;20042;-61
2022/11/08 05:45:35;;;;;;;2.10;1.23;;;21.40;58.90;;;;;;5055351;28;20028;-61
2022/11/08 05:48:02;;;;;;;1.90;1.20;;;21.30;58.80;;;;;;5054984;28;20417;-62
2022/11/08 05:50:35;;;;;;;1.85;1.20;;;21.40;59.40;;;;;;5051857;28;20052;-63
2022/11/08 05:53:01;;;;;;;1.80;1.17;;;21.30;58.80;;;;;;5057087;28;20020;-62
2022/11/08 05:55:27;;;;;;;2.30;1.35;;;21.40;58.90;;;;;;5056770;28;20027;-62
2022/11/08 05:57:52;;;;;;;1.90;1.13;;;21.40;58.90;;;;;;5055542;28;20063;-62
2022/11/08 06:00:19;;;;;;;1.65;1.13;;;21.40;58.90;;;;;;5053433;28;20032;-63
2022/11/08 06:02:45;;;;;;;2.03;1.30;;;21.30;58.90;;;;;;5051866;28;20044;-62
2022/11/08 06:05:11;;;;;;;1.80;1.20;;;21.30;58.90;;;;;;5055260;28;20024;-62
2022/11/08 06:07:37;;;;;;;1.80;1.30;;;21.30;58.90;;;;;;5056119;28;20476;-63
2022/11/08 06:10:04;;;;;;;1.60;1.13;;;21.30;58.90;;;;;;5051197;28;20103;-62
2022/11/08 06:12:30;;;;;;;2.25;1.40;;;21.30;58.90;;;;;;5050133;28;20017;-62
2022/11/08 06:14:55;;;;;;;2.40;1.30;;;21.30;58.90;;;;;;5047013;28;20021;-62
2022/11/08 06:17:21;;;;;;;2.22;1.40;;;21.40;59.50;;;;;;5046730;28;20021;-63
2022/11/08 06:19:47;;;;;;;2.13;1.40;;;21.40;59.80;;;;;;5054371;28;20420;-62
2022/11/08 06:22:12;;;;;;;2.22;1.30;;;21.60;59.60;;;;;;5049962;28;20035;-62
2022/11/08 06:24:38;;;;;;;4.13;1.60;;;21.70;59.30;;;;;;5049848;28;20396;-63
2022/11/08 06:27:04;;;;;;;2.20;1.25;;;21.90;59.10;;;;;;5054940;28;20388;-62
2022/11/08 06:29:29;;;;;;;3.05;1.60;;;22.00;58.60;;;;;;5062561;28;20028;-62
2022/11/08 06:31:57;;;;;;;2.35;1.30;;;22.10;58.50;;;;;;5059477;28;20049;-61
2022/11/08 06:34:23;;;;;;;1.67;1.20;;;22.20;58.10;;;;;;5058268;28;20037;-63
2022/11/08 06:36:48;;;;;;;2.30;1.50;;;22.20;58.10;;;;;;5056012;28;20055;-62
2022/11/08 06:39:14;;;;;;;1.95;1.40;;;22.30;58.10;;;;;;5062798;28;20028;-62
2022/11/08 06:41:40;;;;;;;2.65;1.50;;;22.50;57.90;;;;;;5056386;28;20029;-62
2022/11/08 06:44:05;;;;;;;2.88;1.55;;;22.60;57.60;;;;;;5059821;28;20021;-62
2022/11/08 06:46:31;;;;;;;2.20;1.38;;;22.70;57.10;;;;;;5055309;28;20081;-62
2022/11/08 06:48:57;;;;;;;2.33;1.20;;;22.80;57.00;;;;;;5058907;28;20110;-63
2022/11/08 06:51:22;;;;;;;3.72;1.50;;;22.90;57.00;;;;;;5058229;28;20098;-64
2022/11/08 06:53:48;;;;;;;2.35;1.40;;;23.00;56.40;;;;;;5060905;28;20028;-63
2022/11/08 06:56:13;;;;;;;2.78;1.40;;;23.20;56.10;;;;;;5066688;28;20067;-62
2022/11/08 06:58:39;;;;;;;2.08;1.40;;;23.30;56.20;;;;;;5059974;28;20429;-63
2022/11/08 07:01:07;;;;;;;2.28;1.35;;;23.40;55.60;;;;;;5063760;28;20369;-62
2022/11/08 07:03:33;;;;;;;2.00;1.30;;;23.50;55.40;;;;;;5064413;28;20160;-63
2022/11/08 07:06:01;;;;;;;2.60;1.50;;;23.50;55.20;;;;;;5063180;28;20227;-62
2022/11/08 07:08:27;;;;;;;2.88;1.60;;;23.50;55.20;;;;;;5060319;28;20029;-61
2022/11/08 07:10:53;;;;;;;2.33;1.52;;;23.50;55.10;;;;;;5062983;28;20048;-63
2022/11/08 07:13:19;;;;;;;2.75;1.50;;;23.50;55.70;;;;;;5061211;28;20949;-63
2022/11/08 07:15:46;;;;;;;2.17;1.30;;;23.50;55.20;;;;;;5053300;28;20064;-62
2022/11/08 07:18:13;;;;;;;2.15;1.38;;;23.50;55.50;;;;;;5063643;28;20025;-62
2022/11/08 07:20:40;;;;;;;2.20;1.40;;;23.60;55.20;;;;;;5052037;28;20021;-61
2022/11/08 07:23:06;;;;;;;2.63;1.60;;;23.60;55.00;;;;;;5053720;28;20332;-62
2022/11/08 07:25:32;;;;;;;2.60;1.60;;;23.60;54.90;;;;;;5046817;28;20481;-61
2022/11/08 07:28:03;;;;;;;1.45;1.17;;;23.60;54.80;;;;;;5053840;28;20033;-62
2022/11/08 07:30:29;;;;;;;2.53;1.73;;;23.60;54.80;;;;;;5056409;28;20429;-62
2022/11/08 07:32:56;;;;;;;2.55;1.50;;;23.70;55.30;;;;;;5054387;28;20055;-63
2022/11/08 07:35:22;;;;;;;2.38;1.40;;;23.70;54.60;;;;;;5058384;28;20044;-62
2022/11/08 07:37:48;;;;;;;2.30;1.45;;;23.70;54.60;;;;;;5056097;28;20022;-63
2022/11/08 07:40:13;;;;;;;2.47;1.40;;;23.70;54.50;;;;;;5061789;28;20029;-62
2022/11/08 07:42:40;;;;;;;2.22;1.40;;;23.70;54.80;;;;;;5061406;28;20028;-62
2022/11/08 07:45:07;;;;;;;2.10;1.50;;;23.80;54.70;;;;;;5054252;28;20486;-62
2022/11/08 07:47:33;;;;;;;2.45;1.35;;;23.80;54.50;;;;;;5052695;28;20021;-62
2022/11/08 07:49:59;;;;;;;2.65;1.50;;;23.80;54.30;;;;;;5056292;28;20397;-62
2022/11/08 07:52:25;;;;;;;2.20;1.45;;;23.80;54.30;;;;;;5053566;28;20024;-61
2022/11/08 07:54:50;;;;;;;2.42;1.40;;;23.80;54.40;;;;;;5056996;28;20021;-62
2022/11/08 07:57:16;;;;;;;3.63;1.50;;;23.90;54.70;;;;;;5055617;28;20029;-61
2022/11/08 07:59:41;;;;;;;1.92;1.27;;;23.90;54.40;;;;;;5048460;28;20026;-61
2022/11/08 08:02:09;;;;;;;2.13;1.50;;;24.00;54.30;;;;;;5051857;28;20495;-61
2022/11/08 08:04:35;;;;;;;2.42;1.50;;;23.90;54.10;;;;;;5051521;28;20115;-62
2022/11/08 08:07:01;;;;;;;2.72;1.50;;;24.00;54.20;;;;;;5061454;28;20187;-61
2022/11/08 08:09:26;;;;;;;3.03;1.70;;;24.00;54.30;;;;;;5059733;28;20121;-62
2022/11/08 08:11:52;;;;;;;2.50;1.35;;;24.10;54.40;;;;;;5056021;28;20476;-61
2022/11/08 08:14:18;;;;;;;2.00;1.35;;;24.10;54.30;;;;;;5056107;28;20056;-62
2022/11/08 08:16:43;;;;;;;4.25;1.48;;;24.20;54.10;;;;;;5053377;28;20100;-61
2022/11/08 08:19:09;;;;;;;2.55;1.50;;;24.30;53.70;;;;;;5059012;28;20039;-63
2022/11/08 08:21:34;;;;;;;4.57;1.60;;;24.30;53.70;;;;;;5056874;28;20052;-62
2022/11/08 08:24:00;;;;;;;1.88;1.20;;;24.30;53.50;;;;;;5054137;28;20037;-62
2022/11/08 08:26:26;;;;;;;3.63;1.60;;;24.30;53.70;;;;;;5055205;28;20465;-63
2022/11/08 08:28:51;;;;;;;2.60;1.40;;;24.20;53.80;;;;;;5056004;28;20031;-61
2022/11/08 08:31:17;;;;;;;1.83;1.30;;;24.30;53.80;;;;;;5056609;28;20036;-62
2022/11/08 08:33:42;;;;;;;2.42;1.38;;;24.30;53.70;;;;;;5057778;28;20064;-60
2022/11/08 08:36:08;;;;;;;3.28;1.33;;;24.30;54.30;;;;;;5055003;28;20032;-63
2022/11/08 08:38:34;;;;;;;2.30;1.50;;;24.30;53.80;;;;;;5052284;28;20032;-62
2022/11/08 08:41:01;;;;;;;2.03;1.30;;;24.20;53.80;;;;;;5056692;28;20377;-62
2022/11/08 08:43:27;;;;;;;2.25;1.48;;;24.30;53.80;;;;;;5047989;28;20021;-61
2022/11/08 08:45:57;;;;;;;2.17;1.40;;;24.30;53.70;;;;;;5061737;28;20384;-62
2022/11/08 08:48:22;;;;;;;2.60;1.50;;;24.30;53.70;;;;;;5056676;28;20100;-62
2022/11/08 08:50:48;;;;;;;1.83;1.20;;;24.30;53.70;;;;;;5052334;28;20104;-61
2022/11/08 08:53:13;;;;;;;2.45;1.38;;;24.30;53.70;;;;;;5057957;28;20040;-62
2022/11/08 08:55:41;;;;;;;2.03;1.40;;;24.30;53.70;;;;;;5055340;28;20495;-62
2022/11/08 08:58:06;;;;;;;3.28;1.38;;;24.20;53.50;;;;;;5051997;28;20472;-62
2022/11/08 09:00:32;;;;;;;2.13;1.30;;;24.20;53.50;;;;;;5049006;28;20029;-62
2022/11/08 09:03:03;;;;;;;2.72;1.48;;;24.20;53.60;;;;;;5048127;28;20032;-62
2022/11/08 09:05:29;;;;;;;2.63;1.55;;;24.20;53.50;;;;;;5060974;28;20025;-63
2022/11/08 09:07:55;;;;;;;2.05;1.30;;;24.20;53.70;;;;;;5061563;28;20359;-63
2022/11/08 09:10:21;;;;;;;2.15;1.30;;;24.20;53.70;;;;;;5058540;28;20025;-62
2022/11/08 09:12:46;;;;;;;2.67;1.50;;;24.20;53.60;;;;;;5058580;28;20025;-62
2022/11/08 09:15:12;;;;;;;2.55;1.40;;;24.10;53.60;;;;;;5058154;28;20101;-62
2022/11/08 09:17:37;;;;;;;3.47;1.40;;;24.10;53.90;;;;;;5056346;28;20018;-62
2022/11/08 09:20:03;;;;;;;2.47;1.40;;;24.10;53.90;;;;;;5049178;28;20524;-61
2022/11/08 09:22:32;;;;;;;3.00;1.40;;;24.10;54.10;;;;;;5054754;28;20491;-62
2022/11/08 09:24:58;;;;;;;3.47;1.63;;;24.10;54.00;;;;;;5056487;28;20434;-62
2022/11/08 09:27:24;;;;;;;2.80;1.50;;;24.10;54.20;;;;;;5053070;28;20120;-63
2022/11/08 09:29:49;;;;;;;2.20;1.40;;;24.10;54.20;;;;;;5055777;28;20139;-62
2022/11/08 09:32:15;;;;;;;2.13;1.30;;;24.10;54.30;;;;;;5054629;28;20049;-62
2022/11/08 09:34:41;;;;;;;2.55;1.33;;;24.10;54.50;;;;;;5046049;28;20425;-62
2022/11/08 09:37:06;;;;;;;2.45;1.30;;;24.10;54.60;;;;;;5050925;28;20032;-62
2022/11/08 09:39:32;;;;;;;2.38;1.30;;;24.10;54.60;;;;;;5052053;28;20472;-62
2022/11/08 09:42:15;;;;;;;2.30;1.30;;;24.00;54.70;;;;;;5051517;28;20021;-62
2022/11/08 09:45:09;;;;;;;3.38;1.27;;;24.10;54.50;;;;;;5062776;28;20028;-61
2022/11/08 09:47:48;;;;;;;4.40;1.48;;;24.10;54.70;;;;;;5056620;28;20031;-61
2022/11/08 09:50:38;;;;;;;3.15;1.42;;;24.10;54.70;;;;;;5058163;28;20032;-62
2022/11/08 09:53:35;;;;;;;2.72;1.50;;;24.00;54.60;;;;;;5056654;28;20385;-62
2022/11/08 09:56:10;;;;;;;2.45;1.30;;;24.00;54.60;;;;;;5050203;28;20415;-62
2022/11/08 09:59:10;;;;;;;3.28;1.50;;;24.00;54.70;;;;;;5051144;28;20037;-61
2022/11/08 10:01:37;;;;;;;2.30;1.30;;;24.00;54.70;;;;;;5053078;28;20029;-62
2022/11/08 10:04:11;;;;;;;2.65;1.40;;;24.00;54.80;;;;;;5057264;28;20088;-62
2022/11/08 10:06:54;;;;;;;3.28;1.33;;;24.00;54.90;;;;;;5057284;28;20086;-61
2022/11/08 10:09:47;;;;;;;4.85;1.52;;;23.90;55.20;;;;;;5053188;28;20029;-61
2022/11/08 10:12:31;;;;;;;3.22;1.40;;;23.90;55.10;;;;;;5050288;28;20028;-61
2022/11/08 10:15:05;;;;;;;2.63;1.30;;;23.90;55.20;;;;;;5056050;28;20025;-62
2022/11/08 10:17:39;;;;;;;3.30;1.40;;;23.90;55.50;;;;;;5049943;28;20029;-61
2022/11/08 10:20:19;;;;;;;2.10;1.27;;;23.90;55.60;;;;;;5049991;28;20452;-61
2022/11/08 10:23:01;;;;;;;1.77;1.30;;;23.90;56.00;;;;;;5058338;28;20021;-62
2022/11/08 10:25:46;;;;;;;2.45;1.35;;;23.90;56.30;;;;;;5056751;28;20032;-62
2022/11/08 10:28:26;;;;;;;4.05;1.40;;;23.90;56.30;;;;;;5050220;28;20024;-62
2022/11/08 10:30:54;;;;;;;3.67;1.50;;;23.90;56.30;;;;;;5051683;28;20037;-63
2022/11/08 10:33:26;;;;;;;2.53;1.40;;;23.90;56.30;;;;;;5049721;28;20040;-61
2022/11/08 10:36:14;;;;;;;4.25;1.33;;;23.90;56.00;;;;;;5053855;28;20512;-62
2022/11/08 10:39:07;;;;;;;2.25;1.30;;;23.90;56.30;;;;;;5043058;28;20033;-62
2022/11/08 10:41:43;;;;;;;3.28;1.40;;;23.90;56.10;;;;;;5052608;28;20519;-61
2022/11/08 10:44:22;;;;;;;2.35;1.27;;;23.90;55.80;;;;;;5060720;28;20021;-62
2022/11/08 10:46:55;;;;;;;2.55;1.40;;;23.90;55.80;;;;;;5050958;28;20136;-62
2022/11/08 10:49:33;;;;;;;2.25;1.38;;;23.90;55.70;;;;;;5054080;28;20021;-62
2022/11/08 10:52:11;;;;;;;2.38;1.10;;;23.90;56.40;;;;;;5052715;28;20024;-62
2022/11/08 10:54:49;;;;;;;2.97;1.45;;;23.80;56.00;;;;;;5054128;28;20032;-61
2022/11/08 10:57:22;;;;;;;2.50;1.60;;;23.90;56.00;;;;;;5053045;28;20048;-61
2022/11/08 10:59:48;;;;;;;1.75;1.20;;;23.80;55.90;;;;;;5057145;28;20379;-62
2022/11/08 11:02:20;;;;;;;2.50;1.52;;;23.90;56.50;;;;;;5057713;28;20028;-61
2022/11/08 11:04:46;;;;;;;3.03;1.35;;;23.80;56.00;;;;;;5048701;28;20025;-61
2022/11/08 11:07:31;;;;;;;2.70;1.38;;;23.90;56.10;;;;;;5052820;28;20056;-62
2022/11/08 11:10:15;;;;;;;3.22;1.85;;;23.80;56.10;;;;;;5049114;28;20029;-63
2022/11/08 11:12:40;;;;;;;2.83;1.40;;;23.80;56.10;;;;;;5053658;28;20484;-62
2022/11/08 11:15:14;;;;;;;2.53;1.10;;;23.80;56.10;;;;;;5051429;28;20067;-61
2022/11/08 11:17:42;;;;;;;4.45;1.50;;;23.80;56.20;;;;;;5051006;28;20029;-61
2022/11/08 11:20:20;;;;;;;2.28;1.25;;;23.80;56.10;;;;;;5046011;28;20063;-61
2022/11/08 11:22:46;;;;;;;3.53;1.30;;;23.80;56.20;;;;;;5047810;28;20075;-63
2022/11/08 11:25:19;;;;;;;1.80;1.20;;;23.80;56.10;;;;;;5055013;28;20340;-61
2022/11/08 11:27:53;;;;;;;4.05;1.40;;;23.80;56.10;;;;;;5053823;28;20396;-61
2022/11/08 11:30:21;;;;;;;2.80;1.35;;;23.80;56.10;;;;;;5052461;28;20030;-62
2022/11/08 11:32:56;;;;;;;2.58;1.30;;;23.80;56.00;;;;;;5053311;28;20033;-61
2022/11/08 11:35:45;;;;;;;2.75;1.45;;;23.80;56.00;;;;;;5053004;28;20072;-61
2022/11/08 11:38:34;;;;;;;2.58;1.40;;;23.80;55.90;;;;;;5055856;28;20017;-62
2022/11/08 11:41:05;;;;;;;2.03;1.30;;;23.80;55.90;;;;;;5047878;28;20615;-61
2022/11/08 11:43:38;;;;;;;2.20;1.20;;;23.80;55.90;;;;;;5052600;28;20841;-62
2022/11/08 11:46:18;;;;;;;1.73;1.13;;;23.80;55.90;;;;;;5055958;28;20399;-61
2022/11/08 11:49:11;;;;;;;1.60;1.20;;;23.80;56.10;;;;;;5057162;28;20053;-61
2022/11/08 11:51:37;;;;;;;2.00;1.40;;;23.80;56.10;;;;;;5058672;28;20447;-62
2022/11/08 11:54:05;;;;;;;2.22;1.52;;;23.70;55.90;;;;;;5055345;28;20037;-61
2022/11/08 11:56:40;;;;;;;2.20;1.35;;;23.70;55.90;;;;;;5057799;28;20025;-62
2022/11/08 11:59:33;;;;;;;2.47;1.65;;;23.70;55.90;;;;;;5056291;28;20021;-61
2022/11/08 12:02:18;;;;;;;2.05;1.33;;;23.80;55.80;;;;;;5046491;28;20033;-62
2022/11/08 12:04:55;;;;;;;2.28;1.33;;;23.70;55.90;;;;;;5061477;28;20044;-61
2022/11/08 12:07:27;;;;;;;2.78;1.35;;;23.80;55.90;;;;;;5054257;28;20067;-61
2022/11/08 12:10:15;;;;;;;2.53;1.52;;;23.70;55.70;;;;;;5053306;28;20476;-62
2022/11/08 12:13:12;;;;;;;1.63;1.20;;;23.80;55.60;;;;;;5056539;28;20102;-63
2022/11/08 12:15:45;;;;;;;2.00;1.17;;;23.80;55.60;;;;;;5035281;28;20033;-62
2022/11/08 12:18:26;;;;;;;1.92;1.30;;;23.80;55.60;;;;;;5052492;28;20333;-63
2022/11/08 12:21:00;;;;;;;2.78;1.50;;;23.80;55.60;;;;;;5051587;28;20033;-61
2022/11/08 12:23:29;;;;;;;3.28;1.20;;;23.80;55.60;;;;;;5053355;28;20064;-62
2022/11/08 12:26:05;;;;;;;2.83;1.55;;;23.80;55.70;;;;;;5061667;28;20128;-63
2022/11/08 12:28:59;;;;;;;2.38;1.50;;;23.70;55.60;;;;;;5060278;28;20133;-62
2022/11/08 12:31:32;;;;;;;2.28;1.30;;;23.70;55.60;;;;;;5059413;28;20174;-61
2022/11/08 12:34:19;;;;;;;2.67;1.33;;;23.70;55.60;;;;;;5058895;28;20100;-62
2022/11/08 12:37:06;;;;;;;2.20;1.33;;;23.80;55.80;;;;;;5053576;28;20437;-61
2022/11/08 12:39:46;;;;;;;3.25;1.48;;;23.80;55.70;;;;;;5049525;28;20032;-62
2022/11/08 12:42:20;;;;;;;;;;;23.80;55.70;;;;;;5056976;28;20133;-63
2022/11/08 12:44:58;;;;;;;2.97;1.65;;;23.80;55.80;;;;;;5053404;28;19920;-62
2022/11/08 12:48:00;;;;;;;4.95;2.05;;;23.80;55.70;;;;;;5054089;28;20032;-62
2022/11/08 12:50:44;;;;;;;5.38;3.08;;;23.80;55.80;;;;;;5055661;28;20384;-62
2022/11/08 12:53:28;;;;;;;12.85;6.55;;;23.80;55.70;;;;;;5051809;28;20033;-62
2022/11/08 12:55:56;;;;;;;24.92;12.43;;;23.80;55.80;;;;;;5051708;28;20036;-62
2022/11/08 12:58:42;;;;;;;33.63;17.95;;;23.80;55.80;;;;;;5052631;28;20025;-63
2022/11/08 13:01:14;;;;;;;39.67;20.25;;;23.80;55.80;;;;;;5049943;28;20438;-62
2022/11/08 13:03:45;;;;;;;36.05;18.20;;;23.80;55.90;;;;;;5046532;28;20460;-61
2022/11/08 13:06:29;;;;;;;40.08;21.05;;;23.80;55.90;;;;;;5059532;28;20024;-63
2022/11/08 13:09:25;;;;;;;46.13;24.27;;;23.80;55.80;;;;;;5058724;28;20029;-62
2022/11/08 13:12:06;;;;;;;55.92;28.90;;;23.80;55.80;;;;;;5067774;28;20087;-62
2022/11/08 13:14:33;;;;;;;53.25;30.35;;;23.80;55.70;;;;;;5058583;28;20076;-63
2022/11/08 13:17:08;;;;;;;54.95;28.90;;;23.80;55.60;;;;;;5052097;28;20021;-64
2022/11/08 13:19:53;;;;;;;53.15;28.05;;;23.90;55.70;;;;;;5068752;28;20055;-64
2022/11/08 13:22:31;;;;;;;48.95;26.85;;;23.80;55.60;;;;;;5064160;28;20475;-62